createdAt,value
2023-04-18T00:00:10.318Z,8.70
2023-04-18T00:03:06.729Z,8.70
2023-04-18T00:05:38.787Z,9.90
2023-04-18T00:08:10.733Z,7.90
2023-04-18T00:10:42.645Z,9.20
2023-04-18T00:13:14.483Z,8.00
2023-04-18T00:15:46.413Z,8.40
2023-04-18T00:18:18.191Z,8.70
2023-04-18T00:20:50.153Z,8.70
2023-04-18T00:23:22.419Z,9.60
2023-04-18T00:25:54.192Z,7.90
2023-04-18T00:30:56.713Z,8.00
2023-04-18T00:33:28.581Z,8.40
2023-04-18T00:36:00.352Z,9.60
2023-04-18T00:38:32.160Z,9.90
2023-04-18T00:41:03.960Z,9.80
2023-04-18T00:43:35.987Z,9.30
2023-04-18T00:48:40.027Z,8.60
2023-04-18T00:51:12.569Z,6.80
2023-04-18T00:53:45.517Z,8.50
2023-04-18T00:56:18.138Z,8.60
2023-04-18T00:58:50.230Z,8.70
2023-04-18T01:01:23.554Z,8.50
2023-04-18T01:03:55.823Z,7.60
2023-04-18T01:06:28.405Z,8.50
2023-04-18T01:09:00.281Z,9.50
2023-04-18T01:11:32.311Z,9.90
2023-04-18T01:16:37.047Z,6.80
2023-04-18T01:19:09.212Z,8.90
2023-04-18T01:21:44.023Z,8.90
2023-04-18T01:24:18.633Z,7.80
2023-04-18T01:26:52.489Z,8.80
2023-04-18T01:29:24.339Z,8.40
2023-04-18T01:31:56.058Z,7.90
2023-04-18T01:34:27.917Z,8.30
2023-04-18T01:37:00.277Z,7.70
2023-04-18T01:39:32.184Z,9.00
2023-04-18T01:42:04.012Z,8.40
2023-04-18T01:44:35.742Z,8.90
2023-04-18T01:47:07.781Z,8.30
2023-04-18T01:49:42.879Z,7.50
2023-04-18T01:52:15.265Z,7.70
2023-04-18T01:54:47.163Z,7.10
2023-04-18T01:57:19.097Z,8.10
2023-04-18T01:59:51.109Z,8.10
2023-04-18T02:02:23.627Z,7.80
2023-04-18T02:04:57.028Z,7.60
2023-04-18T02:07:28.890Z,8.40
2023-04-18T02:10:01.586Z,7.70
2023-04-18T02:15:05.543Z,6.10
2023-04-18T02:17:41.677Z,6.60
2023-04-18T02:20:14.781Z,6.30
2023-04-18T02:22:47.506Z,6.40
2023-04-18T02:25:19.388Z,6.50
2023-04-18T02:27:51.845Z,6.70
2023-04-18T02:32:57.202Z,4.70
2023-04-18T02:35:30.059Z,6.90
2023-04-18T02:38:02.197Z,6.10
2023-04-18T02:43:36.691Z,5.50
2023-04-18T02:46:08.781Z,5.60
2023-04-18T02:51:11.675Z,5.80
2023-04-18T02:53:43.958Z,6.20
2023-04-18T02:56:18.077Z,5.30
2023-04-18T02:59:08.389Z,6.20
2023-04-18T03:02:06.361Z,6.40
2023-04-18T03:04:38.931Z,5.60
2023-04-18T03:07:12.949Z,5.60
2023-04-18T03:09:45.366Z,5.60
2023-04-18T03:12:27.096Z,5.50
2023-04-18T03:14:58.876Z,6.20
2023-04-18T03:17:31.725Z,6.10
2023-04-18T03:22:34.006Z,5.60
2023-04-18T03:25:07.226Z,6.10
2023-04-18T03:27:48.225Z,4.90
2023-04-18T03:30:21.414Z,5.70
2023-04-18T03:33:02.848Z,6.20
2023-04-18T03:35:35.242Z,5.20
2023-04-18T03:38:07.305Z,6.10
2023-04-18T03:40:44.511Z,5.40
2023-04-18T03:43:22.650Z,6.00
2023-04-18T03:45:54.662Z,6.20
2023-04-18T03:48:26.893Z,6.10
2023-04-18T03:50:59.881Z,5.00
2023-04-18T03:53:31.658Z,6.20
2023-04-18T03:56:03.507Z,5.40
2023-04-18T03:58:53.423Z,5.60
2023-04-18T04:03:56.737Z,5.70
2023-04-18T04:06:28.961Z,4.70
2023-04-18T04:09:00.869Z,5.80
2023-04-18T04:11:33.155Z,6.20
2023-04-18T04:14:05.196Z,6.50
2023-04-18T04:16:41.806Z,5.30
2023-04-18T04:19:15.020Z,6.00
2023-04-18T04:22:09.933Z,5.80
2023-04-18T04:24:42.883Z,5.60
2023-04-18T04:27:19.121Z,5.80
2023-04-18T04:29:52.262Z,5.60
2023-04-18T04:32:25.363Z,6.10
2023-04-18T04:34:58.588Z,5.80
2023-04-18T04:37:31.237Z,5.60
2023-04-18T04:40:15.971Z,6.10
2023-04-18T04:42:58.552Z,5.50
2023-04-18T04:45:36.388Z,6.30
2023-04-18T04:48:08.970Z,6.70
2023-04-18T04:50:42.176Z,6.30
2023-04-18T04:53:16.539Z,6.20
2023-04-18T04:55:48.556Z,6.80
2023-04-18T04:58:21.356Z,5.90
2023-04-18T05:01:12.397Z,6.30
2023-04-18T05:03:45.006Z,6.90
2023-04-18T05:06:20.540Z,6.60
2023-04-18T05:08:52.992Z,6.80
2023-04-18T05:11:24.899Z,7.10
2023-04-18T05:13:56.812Z,6.50
2023-04-18T05:16:28.984Z,6.00
2023-04-18T05:19:01.086Z,5.70
2023-04-18T05:21:32.831Z,6.30
2023-04-18T05:24:04.629Z,7.00
2023-04-18T05:26:36.456Z,7.30
2023-04-18T05:31:39.188Z,6.70
2023-04-18T05:34:10.878Z,6.80
2023-04-18T05:36:42.596Z,7.00
2023-04-18T05:39:14.362Z,6.70
2023-04-18T05:41:46.115Z,6.80
2023-04-18T05:44:18.359Z,7.10
2023-04-18T05:46:52.007Z,6.70
2023-04-18T05:49:24.115Z,7.00
2023-04-18T05:54:26.543Z,7.20
2023-04-18T05:59:29.262Z,7.10
2023-04-18T06:05:14.626Z,7.10
2023-04-18T06:08:27.038Z,7.40
2023-04-18T06:11:01.939Z,6.70
2023-04-18T06:13:34.153Z,7.20
2023-04-18T06:16:06.584Z,7.70
2023-04-18T06:18:38.361Z,8.00
2023-04-18T06:21:11.022Z,7.60
2023-04-18T06:23:42.863Z,8.00
2023-04-18T06:26:14.882Z,7.40
2023-04-18T06:28:46.730Z,8.70
2023-04-18T06:31:18.612Z,8.30
2023-04-18T06:33:50.460Z,8.00
2023-04-18T06:36:22.599Z,7.20
2023-04-18T06:38:54.338Z,8.40
2023-04-18T06:41:26.309Z,7.70
2023-04-18T06:46:46.670Z,8.10
2023-04-18T06:49:18.696Z,9.00
2023-04-18T06:51:50.453Z,8.10
2023-04-18T06:54:22.734Z,8.50
2023-04-18T06:56:55.122Z,9.20
2023-04-18T06:59:28.033Z,8.80
2023-04-18T07:01:59.900Z,8.90
2023-04-18T07:07:05.192Z,8.20
2023-04-18T07:09:37.285Z,9.40
2023-04-18T07:14:39.872Z,8.70
2023-04-18T07:19:43.748Z,9.70
2023-04-18T07:22:15.484Z,10.70
2023-04-18T07:24:48.446Z,10.60
2023-04-18T07:29:50.676Z,8.90
2023-04-18T07:32:22.490Z,10.20
2023-04-18T07:34:54.658Z,11.30
2023-04-18T07:39:56.939Z,9.50
2023-04-18T07:45:00.641Z,10.10
2023-04-18T07:47:33.252Z,9.40
2023-04-18T07:50:06.581Z,10.80
2023-04-18T07:52:39.399Z,10.70
2023-04-18T07:55:12.484Z,10.60
2023-04-18T07:57:50.331Z,11.30
2023-04-18T08:00:23.280Z,11.60
2023-04-18T08:02:55.571Z,10.70
2023-04-18T08:05:27.919Z,10.50
2023-04-18T08:10:30.267Z,10.80
2023-04-18T08:13:02.706Z,11.00
2023-04-18T08:15:34.854Z,11.00
2023-04-18T08:20:38.691Z,10.40
2023-04-18T08:23:13.055Z,10.30
2023-04-18T08:25:45.859Z,9.00
2023-04-18T08:28:17.700Z,8.80
2023-04-18T08:30:50.397Z,10.20
2023-04-18T08:33:22.726Z,9.30
2023-04-18T08:35:55.038Z,8.90
2023-04-18T08:38:26.871Z,10.30
2023-04-18T08:41:00.966Z,8.90
2023-04-18T08:43:33.266Z,8.70
2023-04-18T08:46:05.148Z,9.20
2023-04-18T08:48:37.258Z,8.10
2023-04-18T08:51:09.486Z,9.70
2023-04-18T08:53:42.140Z,9.80
2023-04-18T08:56:14.767Z,9.10
2023-04-18T08:58:46.498Z,8.20
2023-04-18T09:01:18.559Z,8.60
2023-04-18T09:06:20.650Z,9.60
2023-04-18T09:08:59.652Z,8.80
2023-04-18T09:11:34.406Z,8.90
2023-04-18T09:14:06.227Z,8.40
2023-04-18T09:16:47.990Z,8.40
2023-04-18T09:19:19.894Z,7.50
2023-04-18T09:22:00.456Z,7.30
2023-04-18T09:24:34.485Z,7.70
2023-04-18T09:27:15.073Z,8.10
2023-04-18T09:29:49.292Z,9.00
2023-04-18T09:32:25.261Z,7.90
2023-04-18T09:35:01.998Z,6.60
2023-04-18T09:37:36.162Z,7.10
2023-04-18T09:40:19.241Z,8.10
2023-04-18T09:42:54.367Z,7.40
2023-04-18T09:45:27.339Z,7.80
2023-04-18T09:47:59.779Z,7.00
2023-04-18T09:50:32.791Z,7.20
2023-04-18T09:53:05.059Z,7.00
2023-04-18T09:55:38.147Z,7.40
2023-04-18T09:58:10.585Z,7.50
2023-04-18T10:00:43.504Z,6.60
2023-04-18T10:03:21.004Z,6.50
2023-04-18T10:05:53.682Z,7.20
2023-04-18T10:08:27.498Z,6.30
2023-04-18T10:10:59.374Z,7.20
2023-04-18T10:16:03.305Z,6.80
2023-04-18T10:18:35.188Z,6.50
2023-04-18T10:21:07.395Z,6.50
2023-04-18T10:23:40.711Z,6.50
2023-04-18T10:26:12.866Z,6.10
2023-04-18T10:28:56.899Z,6.30
2023-04-18T10:31:30.489Z,6.20
2023-04-18T10:34:07.497Z,6.00
2023-04-18T10:36:59.918Z,6.70
2023-04-18T10:39:31.980Z,6.80
2023-04-18T10:42:03.851Z,7.20
2023-04-18T10:44:35.650Z,6.50
2023-04-18T10:50:06.192Z,6.50
2023-04-18T10:52:38.471Z,7.20
2023-04-18T10:55:29.574Z,6.50
2023-04-18T10:58:02.162Z,6.00
2023-04-18T11:00:34.819Z,6.30
2023-04-18T11:03:07.702Z,6.60
2023-04-18T11:05:39.995Z,7.40
2023-04-18T11:08:25.459Z,6.60
2023-04-18T11:11:03.235Z,7.40
2023-04-18T11:13:37.085Z,6.80
2023-04-18T11:16:09.785Z,6.70
2023-04-18T11:18:44.683Z,7.20
2023-04-18T11:21:16.791Z,6.50
2023-04-18T11:23:49.419Z,6.80
2023-04-18T11:26:21.788Z,5.50
2023-04-18T11:28:57.802Z,6.30
2023-04-18T11:31:29.609Z,6.60
2023-04-18T11:34:03.086Z,5.70
2023-04-18T11:36:38.544Z,6.40
2023-04-18T11:39:10.685Z,7.20
2023-04-18T11:41:50.445Z,6.30
2023-04-18T11:44:25.927Z,6.00
2023-04-18T11:46:57.817Z,5.90
2023-04-18T11:52:02.237Z,5.40
2023-04-18T11:54:44.116Z,6.10
2023-04-18T11:57:26.851Z,6.20
2023-04-18T12:00:00.234Z,6.10
2023-04-18T12:02:43.191Z,6.00
2023-04-18T12:05:25.759Z,5.80
2023-04-18T12:08:05.816Z,6.00
2023-04-18T12:10:37.550Z,6.00
2023-04-18T12:13:11.049Z,5.30
2023-04-18T12:15:44.741Z,5.50
2023-04-18T12:18:19.543Z,5.90
2023-04-18T12:20:54.267Z,5.50
2023-04-18T12:23:34.379Z,5.00
2023-04-18T12:26:07.864Z,5.80
2023-04-18T12:28:40.047Z,6.50
2023-04-18T12:31:12.043Z,6.70
2023-04-18T12:33:43.843Z,6.20
2023-04-18T12:36:15.794Z,6.50
2023-04-18T12:41:18.645Z,6.50
2023-04-18T12:46:20.906Z,7.20
2023-04-18T12:48:52.698Z,6.30
2023-04-18T12:51:24.625Z,6.40
2023-04-18T12:53:56.602Z,5.80
2023-04-18T12:58:58.821Z,5.50
2023-04-18T13:01:30.952Z,5.90
2023-04-18T13:04:11.991Z,5.90
2023-04-18T13:06:45.156Z,5.50
2023-04-18T13:11:49.627Z,5.50
2023-04-18T13:14:21.649Z,5.90
2023-04-18T13:16:53.392Z,5.70
2023-04-18T13:21:55.735Z,6.50
2023-04-18T13:24:27.561Z,6.60
2023-04-18T13:27:02.369Z,6.60
2023-04-18T13:29:34.255Z,7.20
2023-04-18T13:34:38.855Z,6.10
2023-04-18T13:37:10.708Z,5.20
2023-04-18T13:39:43.063Z,6.40
2023-04-18T13:42:16.161Z,6.20
2023-04-18T13:44:48.637Z,4.80
2023-04-18T13:47:21.208Z,5.90
2023-04-18T13:49:53.672Z,5.80
2023-04-18T13:52:25.930Z,6.00
2023-04-18T13:54:57.961Z,5.20
2023-04-18T13:57:32.278Z,6.30
2023-04-18T14:00:06.645Z,5.70
2023-04-18T14:02:43.916Z,6.40
2023-04-18T14:05:15.974Z,7.20
2023-04-18T14:07:48.953Z,5.40
2023-04-18T14:10:21.704Z,6.10
2023-04-18T14:12:53.525Z,20.30
2023-04-18T14:17:57.749Z,122.10
2023-04-18T14:20:35.463Z,10.70
2023-04-18T14:23:08.862Z,5.40
2023-04-18T14:25:42.430Z,5.10
2023-04-18T14:28:15.789Z,5.80
2023-04-18T14:30:48.871Z,5.90
2023-04-18T14:33:21.637Z,5.80
2023-04-18T14:35:55.284Z,6.10
2023-04-18T14:38:27.339Z,5.80
2023-04-18T14:41:07.369Z,17.40
2023-04-18T14:43:39.271Z,18.50
2023-04-18T14:48:47.482Z,6.40
2023-04-18T14:51:19.866Z,5.70
2023-04-18T14:53:52.218Z,7.40
2023-04-18T14:56:24.423Z,5.70
2023-04-18T14:58:56.215Z,5.60
2023-04-18T15:01:28.106Z,5.90
2023-04-18T15:06:32.699Z,14.00
2023-04-18T15:09:04.780Z,8.10
2023-04-18T15:11:36.685Z,9.30
2023-04-18T15:14:09.766Z,6.80
2023-04-18T15:16:41.776Z,15.50
2023-04-18T15:19:13.644Z,8.00
2023-04-18T15:21:45.687Z,9.30
2023-04-18T15:26:49.118Z,7.60
2023-04-18T15:29:21.186Z,9.50
2023-04-18T15:34:25.293Z,8.80
2023-04-18T15:36:57.202Z,10.00
2023-04-18T15:41:59.294Z,10.20
2023-04-18T15:44:31.731Z,10.10
2023-04-18T15:47:03.572Z,11.80
2023-04-18T15:49:36.227Z,12.90
2023-04-18T15:52:08.531Z,14.30
2023-04-18T15:54:42.877Z,17.20
2023-04-18T15:57:16.087Z,17.00
2023-04-18T15:59:47.879Z,10.40
2023-04-18T16:02:20.130Z,14.70
2023-04-18T16:04:52.110Z,15.00
2023-04-18T16:09:55.636Z,13.80
2023-04-18T16:12:30.514Z,15.50
2023-04-18T16:15:02.565Z,14.50
2023-04-18T16:17:35.145Z,12.90
2023-04-18T16:20:10.742Z,12.70
2023-04-18T16:22:44.203Z,13.20
2023-04-18T16:25:16.729Z,11.90
2023-04-18T16:27:48.729Z,11.40
2023-04-18T16:30:21.216Z,10.00
2023-04-18T16:32:54.436Z,8.80
2023-04-18T16:35:27.057Z,9.00
2023-04-18T16:37:59.371Z,8.40
2023-04-18T16:40:32.111Z,7.90
2023-04-18T16:43:04.226Z,7.40
2023-04-18T16:45:36.425Z,7.30
2023-04-18T16:48:09.508Z,7.30
2023-04-18T16:50:41.389Z,7.00
2023-04-18T16:53:13.470Z,7.40
2023-04-18T16:55:45.549Z,6.70
2023-04-18T17:00:48.206Z,6.90
2023-04-18T17:05:50.576Z,7.30
2023-04-18T17:08:22.514Z,7.30
2023-04-18T17:10:55.687Z,8.20
2023-04-18T17:13:28.008Z,7.60
2023-04-18T17:16:00.807Z,8.30
2023-04-18T17:18:33.557Z,6.70
2023-04-18T17:21:05.752Z,5.90
2023-04-18T17:23:38.443Z,7.20
2023-04-18T17:26:10.249Z,7.00
2023-04-18T17:28:42.326Z,7.20
2023-04-18T17:31:15.883Z,6.30
2023-04-18T17:33:47.933Z,6.60
2023-04-18T17:36:20.464Z,7.00
2023-04-18T17:41:23.434Z,6.80
2023-04-18T17:43:58.152Z,6.80
2023-04-18T17:46:30.380Z,7.30
2023-04-18T17:49:02.288Z,8.00
2023-04-18T17:51:34.278Z,7.30
2023-04-18T17:56:37.435Z,8.60
2023-04-18T18:01:42.305Z,8.20
2023-04-18T18:04:14.609Z,10.60
2023-04-18T18:06:57.462Z,8.90
2023-04-18T18:11:59.767Z,10.40
2023-04-18T18:14:31.982Z,9.90
2023-04-18T18:19:35.305Z,9.60
2023-04-18T18:22:09.564Z,10.40
2023-04-18T18:24:41.736Z,10.70
2023-04-18T18:29:44.629Z,9.30
2023-04-18T18:34:47.789Z,9.70
2023-04-18T18:37:19.654Z,10.10
2023-04-18T18:42:23.430Z,25.30
2023-04-18T18:44:57.754Z,24.40
2023-04-18T18:47:35.486Z,32.10
2023-04-18T18:50:10.315Z,17.30
2023-04-18T18:52:46.656Z,21.40
2023-04-18T18:55:18.444Z,17.30
2023-04-18T18:57:54.451Z,26.60
2023-04-18T19:00:35.865Z,28.80
2023-04-18T19:03:09.673Z,27.70
2023-04-18T19:05:45.064Z,33.50
2023-04-18T19:08:19.398Z,30.60
2023-04-18T19:10:51.733Z,30.20
2023-04-18T19:13:24.362Z,30.80
2023-04-18T19:15:56.204Z,23.00
2023-04-18T19:18:28.077Z,20.50
2023-04-18T19:20:59.895Z,49.20
2023-04-18T19:23:31.949Z,27.90
2023-04-18T19:28:37.682Z,20.60
2023-04-18T19:31:18.067Z,27.30
2023-04-18T19:33:55.364Z,23.20
2023-04-18T19:36:30.954Z,22.10
2023-04-18T19:39:02.920Z,19.00
2023-04-18T19:44:18.056Z,15.00
2023-04-18T19:46:55.625Z,17.30
2023-04-18T19:49:28.795Z,19.60
2023-04-18T19:52:00.562Z,19.50
2023-04-18T19:54:34.389Z,21.80
2023-04-18T19:57:08.082Z,21.80
2023-04-18T19:59:42.502Z,25.30
2023-04-18T20:02:17.190Z,25.90
2023-04-18T20:04:49.571Z,21.70
2023-04-18T20:07:25.531Z,20.20
2023-04-18T20:10:01.286Z,20.70
2023-04-18T20:12:33.967Z,19.10
2023-04-18T20:15:11.593Z,15.00
2023-04-18T20:17:44.750Z,16.30
2023-04-18T20:20:16.790Z,16.20
2023-04-18T20:22:50.684Z,13.50
2023-04-18T20:25:22.715Z,17.50
2023-04-18T20:27:54.784Z,17.70
2023-04-18T20:32:57.268Z,101.30
2023-04-18T20:38:00.868Z,36.40
2023-04-18T20:40:33.358Z,70.20
2023-04-18T20:43:06.821Z,51.90
2023-04-18T20:45:43.041Z,37.00
2023-04-18T20:48:14.913Z,42.10
2023-04-18T20:50:51.433Z,41.40
2023-04-18T20:53:26.064Z,33.20
2023-04-18T20:55:57.838Z,30.80
2023-04-18T20:58:30.367Z,21.50
2023-04-18T21:01:02.206Z,37.50
2023-04-18T21:03:34.318Z,35.50
2023-04-18T21:08:37.995Z,27.30
2023-04-18T21:11:10.020Z,25.30
2023-04-18T21:13:41.894Z,28.90
2023-04-18T21:16:13.670Z,27.80
2023-04-18T21:18:45.539Z,27.60
2023-04-18T21:21:17.418Z,27.00
2023-04-18T21:23:49.127Z,29.70
2023-04-18T21:26:21.134Z,25.70
2023-04-18T21:31:27.610Z,25.10
2023-04-18T21:34:00.457Z,24.70
2023-04-18T21:36:32.932Z,23.80
2023-04-18T21:39:05.021Z,24.40
2023-04-18T21:44:07.455Z,23.50
2023-04-18T21:49:09.652Z,23.70
2023-04-18T21:51:41.529Z,24.80
2023-04-18T21:54:13.508Z,23.00
2023-04-18T21:59:15.746Z,23.80
2023-04-18T22:01:47.618Z,25.00
2023-04-18T22:06:54.370Z,20.90
2023-04-18T22:09:26.209Z,24.00
2023-04-18T22:11:57.937Z,23.50
2023-04-18T22:14:29.758Z,20.30
2023-04-18T22:17:03.245Z,21.40
2023-04-18T22:19:35.782Z,21.10
2023-04-18T22:22:07.503Z,23.00
2023-04-18T22:24:39.452Z,21.70
2023-04-18T22:27:11.224Z,17.90
2023-04-18T22:29:43.121Z,21.80
2023-04-18T22:32:14.841Z,22.40
2023-04-18T22:34:46.871Z,23.70
2023-04-18T22:37:18.641Z,28.20
2023-04-18T22:39:50.397Z,28.40
2023-04-18T22:44:52.826Z,21.20
2023-04-18T22:47:24.670Z,20.80
2023-04-18T22:49:56.674Z,19.00
2023-04-18T22:54:58.889Z,20.00
2023-04-18T22:57:30.904Z,18.00
2023-04-18T23:02:33.583Z,19.80
2023-04-18T23:05:08.191Z,21.10
2023-04-18T23:07:39.949Z,17.00
2023-04-18T23:10:13.773Z,17.10
2023-04-18T23:12:45.519Z,20.00
2023-04-18T23:15:17.258Z,19.00
2023-04-18T23:17:49.130Z,19.00
2023-04-18T23:20:21.274Z,17.30
2023-04-18T23:22:53.767Z,18.40
2023-04-18T23:25:25.600Z,17.40
2023-04-18T23:27:57.335Z,17.40
2023-04-18T23:30:29.074Z,17.20
2023-04-18T23:33:00.854Z,15.90
2023-04-18T23:35:32.814Z,15.80
2023-04-18T23:40:35.557Z,16.80
2023-04-18T23:43:07.332Z,16.70
2023-04-18T23:45:39.070Z,15.40
2023-04-18T23:48:10.829Z,15.30
2023-04-18T23:50:48.323Z,18.10
2023-04-18T23:53:20.165Z,16.50
2023-04-18T23:55:52.240Z,16.50
